Time;durP1;ratioP1;P1;durP2;ratioP2;P2;SDS_P1;SDS_P2;PMS_P1;PMS_P2;Temp;Humidity;BMP_temperature;BMP_pressure;BME280_temperature;BME280_humidity;BME280_pressure;Samples;Min_cycle;Max_cycle;Signal;HPM_P1;HPM_P2
2022/12/26 00:02:04;;;;;;;17.20;12.63;;;10.60;99.90;;;;;;5038561;28;20252;-62
2022/12/26 00:04:31;;;;;;;18.60;12.37;;;10.50;49.40;;;;;;5054948;28;20262;-62
2022/12/26 00:07:22;;;;;;;18.80;11.77;;;10.50;2.60;;;;;;5054390;28;20617;-61
2022/12/26 00:09:49;;;;;;;18.33;12.47;;;10.60;1.00;;;;;;5055625;28;20792;-62
2022/12/26 00:12:16;;;;;;;20.33;12.93;;;10.60;99.90;;;;;;5056238;28;20215;-62
2022/12/26 00:14:43;;;;;;;17.43;11.43;;;10.60;99.90;;;;;;5038373;28;20203;-62
2022/12/26 00:17:12;;;;;;;19.43;12.60;;;10.60;1.00;;;;;;5056679;28;20182;-63
2022/12/26 00:19:47;;;;;;;18.70;12.30;;;10.70;1.00;;;;;;5039137;28;20732;-68
2022/12/26 00:22:15;;;;;;;20.73;14.70;;;10.60;99.90;;;;;;5055934;28;21253;-63
2022/12/26 00:24:42;;;;;;;19.20;12.70;;;10.60;1.00;;;;;;5054123;28;20301;-62
2022/12/26 00:27:12;;;;;;;18.47;12.23;;;10.70;1.00;;;;;;5039857;28;20198;-64
2022/12/26 00:29:43;;;;;;;15.83;11.97;;;10.70;1.00;;;;;;5055026;28;20198;-63
2022/12/26 00:32:20;;;;;;;15.70;12.07;;;10.70;99.90;;;;;;5039347;28;20218;-62
2022/12/26 00:34:48;;;;;;;14.20;10.13;;;10.70;99.90;;;;;;5021691;28;20722;-63
2022/12/26 00:37:15;;;;;;;13.83;10.07;;;10.60;99.90;;;;;;5037231;28;20217;-63
2022/12/26 00:39:45;;;;;;;17.93;10.57;;;10.60;92.10;;;;;;5037812;28;20732;-64
2022/12/26 00:42:16;;;;;;;15.10;10.33;;;10.60;1.00;;;;;;5056642;28;20207;-63
2022/12/26 00:44:43;;;;;;;12.67;9.00;;;10.60;1.00;;;;;;5057726;28;20201;-64
2022/12/26 00:47:10;;;;;;;13.47;9.67;;;10.60;1.00;;;;;;5040499;28;20261;-64
2022/12/26 00:49:37;;;;;;;10.67;7.97;;;10.60;1.00;;;;;;5053715;28;20219;-62
2022/12/26 00:52:24;;;;;;;11.30;7.80;;;10.60;1.00;;;;;;5039689;28;20214;-64
2022/12/26 00:54:51;;;;;;;12.20;7.60;;;10.60;1.00;;;;;;5037967;28;20206;-64
2022/12/26 00:57:18;;;;;;;11.17;7.50;;;10.60;1.00;;;;;;5058234;28;20195;-64
2022/12/26 00:59:45;;;;;;;9.83;6.90;;;10.60;99.90;;;;;;5042402;28;20215;-63
2022/12/26 01:04:58;;;;;;;17.53;13.17;;;10.60;1.00;;;;;;5060272;28;20226;-64
2022/12/26 01:07:25;;;;;;;11.23;7.73;;;10.50;1.00;;;;;;5040968;28;20207;-64
2022/12/26 01:09:52;;;;;;;8.93;7.63;;;10.50;1.00;;;;;;5040292;28;20343;-67
2022/12/26 01:12:19;;;;;;;7.43;5.77;;;10.50;1.00;;;;;;5058160;28;20628;-64
2022/12/26 01:14:46;;;;;;;8.73;6.53;;;10.50;1.00;;;;;;5025542;28;20200;-64
2022/12/26 01:17:13;;;;;;;9.77;6.17;;;10.40;1.00;;;;;;5059089;28;20220;-65
2022/12/26 01:19:40;;;;;;;9.80;7.53;;;10.40;1.00;;;;;;5059675;28;20297;-63
2022/12/26 01:22:07;;;;;;;8.23;6.27;;;10.40;1.00;;;;;;5039961;28;20318;-64
2022/12/26 01:24:34;;;;;;;9.53;7.07;;;10.40;1.00;;;;;;5041936;28;20203;-64
2022/12/26 01:27:00;;;;;;;7.53;5.87;;;10.40;1.00;;;;;;5023939;28;20627;-64
2022/12/26 01:29:27;;;;;;;6.50;5.17;;;10.40;1.00;;;;;;5040742;28;20274;-64
2022/12/26 01:31:54;;;;;;;6.83;5.87;;;10.40;1.00;;;;;;5040180;28;20316;-64
2022/12/26 01:34:21;;;;;;;7.53;6.40;;;10.40;1.00;;;;;;5059609;28;20187;-65
2022/12/26 01:36:50;;;;;;;6.43;5.40;;;10.40;1.00;;;;;;5041783;28;20223;-64
2022/12/26 01:39:17;;;;;;;7.83;6.00;;;10.30;80.90;;;;;;5042944;28;20274;-64
2022/12/26 01:41:44;;;;;;;8.27;6.57;;;10.30;99.90;;;;;;5040451;28;20278;-63
2022/12/26 01:44:49;;;;;;;6.17;4.77;;;10.20;1.00;;;;;;5058065;28;20194;-64
2022/12/26 01:47:16;;;;;;;6.93;5.40;;;10.30;1.00;;;;;;5057874;28;20559;-63
2022/12/26 01:49:47;;;;;;;6.40;5.00;;;10.30;1.00;;;;;;5055726;28;20670;-64
2022/12/26 01:52:25;;;;;;;5.70;4.50;;;10.30;1.00;;;;;;5052821;28;20206;-65
2022/12/26 01:54:54;;;;;;;4.40;3.57;;;10.30;1.00;;;;;;5038475;28;20203;-64
2022/12/26 01:57:40;;;;;;;5.00;4.10;;;10.30;1.00;;;;;;5057144;28;20187;-64
2022/12/26 02:00:08;;;;;;;6.23;3.73;;;10.30;1.00;;;;;;5033103;28;20304;-64
2022/12/26 02:05:34;;;;;;;5.37;4.33;;;10.30;1.00;;;;;;5058533;28;20840;-64
2022/12/26 02:08:10;;;;;;;4.60;3.97;;;10.30;1.00;;;;;;5039141;28;20197;-64
2022/12/26 02:11:03;;;;;;;6.47;4.13;;;10.30;99.90;;;;;;5059242;28;20234;-64
2022/12/26 02:13:30;;;;;;;5.90;4.13;;;10.30;99.90;;;;;;5032515;28;20254;-62
2022/12/26 02:15:57;;;;;;;5.43;4.47;;;10.30;1.00;;;;;;5056386;28;20235;-63
2022/12/26 02:18:24;;;;;;;5.13;4.30;;;10.30;1.00;;;;;;5040304;28;20282;-64
2022/12/26 02:21:01;;;;;;;5.17;4.20;;;10.30;1.00;;;;;;5038392;28;20286;-65
2022/12/26 02:23:37;;;;;;;5.50;4.60;;;10.30;1.00;;;;;;5040268;28;20195;-64
2022/12/26 02:26:29;;;;;;;5.00;4.50;;;10.30;1.00;;;;;;5057828;28;20667;-65
2022/12/26 02:29:22;;;;;;;8.07;4.40;;;10.30;1.00;;;;;;5039825;28;20195;-64
2022/12/26 02:32:13;;;;;;;6.43;4.63;;;10.30;99.90;;;;;;5028374;28;20258;-64
2022/12/26 02:34:46;;;;;;;6.73;5.20;;;10.30;99.90;;;;;;5040045;28;20214;-63
2022/12/26 02:37:54;;;;;;;6.73;5.37;;;10.30;99.90;;;;;;5022708;28;20735;-62
2022/12/26 02:40:49;;;;;;;8.20;6.60;;;10.30;99.90;;;;;;5039416;28;20223;-62
2022/12/26 02:43:39;;;;;;;9.20;7.70;;;10.30;1.00;;;;;;5058814;28;20200;-62
2022/12/26 02:49:08;;;;;;;8.53;7.63;;;10.20;1.00;;;;;;5039109;28;20249;-64
2022/12/26 03:13:09;;;;;;;6.93;5.73;;;10.20;99.90;;;;;;5016901;28;20239;-62
2022/12/26 03:18:34;;;;;;;7.17;6.27;;;10.30;1.00;;;;;;4959882;28;20221;-62
2022/12/26 03:21:26;;;;;;;8.87;7.17;;;10.20;1.00;;;;;;4994384;28;20209;-62
2022/12/26 03:23:54;;;;;;;8.87;7.70;;;10.20;1.00;;;;;;5017244;28;20204;-62
2022/12/26 03:26:39;;;;;;;11.50;7.23;;;10.20;1.00;;;;;;5016217;28;20617;-63
2022/12/26 03:31:56;;;;;;;11.60;8.80;;;10.20;99.90;;;;;;5016357;28;20912;-63
2022/12/26 03:34:23;;;;;;;11.93;8.60;;;10.20;99.90;;;;;;5015392;28;20315;-63
2022/12/26 03:37:26;;;;;;;11.03;8.87;;;10.20;99.90;;;;;;5017339;28;20685;-63
2022/12/26 04:20:29;;;;;;;15.63;12.63;;;10.20;1.00;;;;;;4953880;28;20194;-63
2022/12/26 04:46:22;;;;;;;22.83;16.97;;;10.20;99.90;;;;;;5058745;28;20889;-62
2022/12/26 04:51:37;;;;;;;20.17;14.90;;;10.10;49.00;;;;;;5055861;28;20191;-62
2022/12/26 04:54:05;;;;;;;18.80;15.27;;;10.20;1.00;;;;;;5055360;28;20203;-62
2022/12/26 04:56:32;;;;;;;18.03;14.73;;;10.10;1.00;;;;;;5038872;28;20238;-62
2022/12/26 04:58:59;;;;;;;20.20;16.10;;;10.10;1.00;;;;;;5042078;28;20248;-61
2022/12/26 05:09:52;;;;;;;15.50;13.20;;;10.00;99.90;;;;;;5059776;28;20195;-62
2022/12/26 05:12:20;;;;;;;18.07;12.43;;;10.00;1.00;;;;;;5057445;28;20238;-62
2022/12/26 05:14:47;;;;;;;14.93;13.33;;;9.90;1.00;;;;;;5040432;28;20273;-61
2022/12/26 05:28:42;;;;;;;12.77;10.20;;;9.80;1.00;;;;;;5061182;28;20191;-62
2022/12/26 05:31:10;;;;;;;11.33;9.73;;;9.80;1.00;;;;;;5059710;28;20248;-61
2022/12/26 05:36:27;;;;;;;8.10;7.30;;;9.70;1.00;;;;;;5059401;28;20187;-62
2022/12/26 05:38:55;;;;;;;8.60;7.40;;;9.70;1.00;;;;;;5059077;28;20203;-61
2022/12/26 05:41:23;;;;;;;7.23;6.53;;;9.80;1.00;;;;;;5040724;28;20305;-62
2022/12/26 05:43:50;;;;;;;8.37;7.57;;;9.80;99.90;;;;;;5054319;28;20261;-61
2022/12/26 05:46:16;;;;;;;8.23;7.43;;;9.80;99.90;;;;;;5059519;28;20195;-62
2022/12/26 05:48:44;;;;;;;10.70;9.07;;;9.90;99.90;;;;;;5058513;28;20761;-61
2022/12/26 05:51:11;;;;;;;10.43;9.33;;;9.90;99.90;;;;;;5041812;28;20231;-62
2022/12/26 05:53:38;;;;;;;8.37;7.57;;;9.90;8.50;;;;;;5059889;28;20302;-62
2022/12/26 05:56:08;;;;;;;8.00;7.30;;;9.90;1.00;;;;;;5059726;28;20237;-62
2022/12/26 05:58:35;;;;;;;11.47;10.37;;;9.90;1.00;;;;;;5057159;28;20198;-64
2022/12/26 06:01:08;;;;;;;10.80;9.50;;;10.00;1.00;;;;;;5057115;28;20994;-61
2022/12/26 06:03:36;;;;;;;10.60;9.50;;;10.00;1.00;;;;;;5058825;28;20250;-61
2022/12/26 06:06:05;;;;;;;9.87;8.70;;;10.00;1.00;;;;;;5040371;28;20214;-62
2022/12/26 06:08:32;;;;;;;10.50;9.50;;;10.00;1.00;;;;;;5055431;28;20259;-62
2022/12/26 06:11:02;;;;;;;13.07;10.87;;;10.00;1.00;;;;;;5041314;28;20705;-61
2022/12/26 06:13:29;;;;;;;12.37;10.60;;;10.00;1.00;;;;;;5057083;28;20208;-61
2022/12/26 06:15:57;;;;;;;12.57;10.60;;;10.00;1.00;;;;;;5041103;28;20234;-61
2022/12/26 06:18:25;;;;;;;11.53;10.33;;;10.00;1.00;;;;;;5058491;28;20271;-62
2022/12/26 06:20:52;;;;;;;11.10;9.90;;;10.00;1.00;;;;;;5058533;28;20282;-62
2022/12/26 06:23:19;;;;;;;11.70;10.03;;;10.00;1.00;;;;;;5057175;28;20227;-62
2022/12/26 06:25:53;;;;;;;10.63;9.30;;;9.90;1.00;;;;;;5057358;28;20184;-61
2022/12/26 06:28:20;;;;;;;10.57;9.10;;;9.90;1.00;;;;;;5023990;28;20201;-61
2022/12/26 06:30:47;;;;;;;9.63;8.63;;;9.90;1.00;;;;;;5059933;28;20603;-62
2022/12/26 06:33:14;;;;;;;9.73;8.73;;;9.90;1.00;;;;;;5040052;28;20208;-61
2022/12/26 06:35:42;;;;;;;9.90;8.90;;;9.90;1.00;;;;;;5057535;28;20690;-61
2022/12/26 06:38:09;;;;;;;9.47;8.10;;;9.80;1.00;;;;;;5057958;28;20192;-62
2022/12/26 06:40:42;;;;;;;9.07;8.17;;;9.80;1.00;;;;;;5057925;28;20256;-61
2022/12/26 06:43:09;;;;;;;10.73;7.90;;;9.80;1.00;;;;;;5057853;28;20191;-62
2022/12/26 06:45:37;;;;;;;8.60;7.77;;;9.70;1.00;;;;;;5053198;28;20191;-61
2022/12/26 06:48:04;;;;;;;8.87;7.97;;;9.80;1.00;;;;;;5057039;28;20290;-62
2022/12/26 06:50:31;;;;;;;9.83;8.30;;;9.70;1.00;;;;;;5057237;28;20281;-65
2022/12/26 06:52:58;;;;;;;9.37;8.20;;;9.70;1.00;;;;;;5056751;28;20565;-62
2022/12/26 06:55:26;;;;;;;9.33;7.80;;;9.70;99.90;;;;;;5056920;28;20198;-62
2022/12/26 06:57:52;;;;;;;8.93;8.13;;;9.70;99.90;;;;;;5057495;28;20199;-63
2022/12/26 07:00:20;;;;;;;9.10;7.93;;;9.70;99.90;;;;;;5057776;28;20201;-62
2022/12/26 07:02:50;;;;;;;8.17;7.37;;;9.70;99.90;;;;;;5056173;28;20210;-62
2022/12/26 07:05:17;;;;;;;8.80;7.73;;;9.70;99.90;;;;;;5039204;28;20232;-61
2022/12/26 07:07:50;;;;;;;9.13;8.07;;;9.60;99.90;;;;;;5053756;28;20654;-62
2022/12/26 07:10:18;;;;;;;8.77;7.87;;;9.50;99.90;;;;;;5054962;28;20196;-62
2022/12/26 07:12:47;;;;;;;8.50;7.60;;;9.50;99.90;;;;;;5054564;28;20201;-61
2022/12/26 07:15:14;;;;;;;9.80;8.00;;;9.50;1.00;;;;;;5052739;28;20244;-64
2022/12/26 07:17:41;;;;;;;9.90;8.90;;;9.50;1.00;;;;;;5055683;28;20766;-62
2022/12/26 07:20:09;;;;;;;11.07;9.87;;;9.50;1.00;;;;;;5054618;28;20197;-62
2022/12/26 07:22:36;;;;;;;19.73;15.07;;;9.40;1.00;;;;;;5055737;28;20268;-62
2022/12/26 07:25:03;;;;;;;15.53;9.53;;;9.50;1.00;;;;;;5052851;28;20617;-62
2022/12/26 07:27:33;;;;;;;13.73;10.93;;;9.40;99.90;;;;;;5056411;28;20200;-62
2022/12/26 07:30:00;;;;;;;9.50;8.50;;;9.50;1.00;;;;;;5053636;28;20192;-63
2022/12/26 07:32:27;;;;;;;9.77;8.70;;;9.40;1.00;;;;;;5035360;28;20194;-63
2022/12/26 07:34:54;;;;;;;11.70;8.87;;;9.40;1.00;;;;;;5038527;28;20322;-63
2022/12/26 07:37:22;;;;;;;8.93;8.03;;;9.40;1.00;;;;;;5037849;28;20280;-62
2022/12/26 07:39:49;;;;;;;9.40;8.40;;;9.50;1.00;;;;;;5056783;28;20195;-62
2022/12/26 07:42:24;;;;;;;10.67;9.23;;;9.50;1.00;;;;;;5052536;28;20183;-62
2022/12/26 07:44:51;;;;;;;8.40;7.60;;;9.50;1.00;;;;;;5038493;28;20321;-62
2022/12/26 07:47:18;;;;;;;11.67;10.57;;;9.50;1.00;;;;;;5057304;28;20270;-62
2022/12/26 07:49:45;;;;;;;9.30;8.40;;;9.50;99.90;;;;;;5053945;28;20191;-62
2022/12/26 07:52:12;;;;;;;9.23;8.00;;;9.50;1.00;;;;;;5055157;28;20266;-63
2022/12/26 07:54:39;;;;;;;7.13;6.43;;;9.50;1.00;;;;;;5035319;28;20334;-62
2022/12/26 07:57:06;;;;;;;9.73;8.70;;;9.50;99.90;;;;;;5055311;28;20219;-62
2022/12/26 07:59:53;;;;;;;8.40;7.40;;;9.40;1.00;;;;;;5053190;28;20191;-62
2022/12/26 08:02:21;;;;;;;8.83;7.97;;;9.50;1.00;;;;;;5052463;28;20178;-62
2022/12/26 08:04:48;;;;;;;7.67;6.87;;;9.50;99.90;;;;;;5053510;28;20474;-62
2022/12/26 08:07:15;;;;;;;8.73;6.53;;;9.50;99.90;;;;;;5054569;28;20199;-62
2022/12/26 08:09:43;;;;;;;11.83;8.67;;;9.60;99.90;;;;;;5054594;28;20219;-62
2022/12/26 08:12:11;;;;;;;6.37;5.77;;;9.60;99.90;;;;;;5054166;28;20195;-62
2022/12/26 08:14:40;;;;;;;7.10;5.90;;;9.60;99.90;;;;;;5035586;28;20269;-63
2022/12/26 08:17:07;;;;;;;7.60;6.67;;;9.70;99.90;;;;;;5053027;28;20203;-62
2022/12/26 08:19:34;;;;;;;9.43;6.57;;;9.70;99.90;;;;;;5035793;28;20191;-63
2022/12/26 08:22:01;;;;;;;8.27;6.57;;;9.70;99.90;;;;;;5052842;28;20257;-62
2022/12/26 08:24:28;;;;;;;7.83;5.37;;;9.70;99.90;;;;;;5034720;28;20227;-62
2022/12/26 08:26:55;;;;;;;5.67;4.97;;;9.80;99.90;;;;;;5053257;28;20192;-62
2022/12/26 08:29:22;;;;;;;4.73;4.23;;;9.80;99.90;;;;;;5053827;28;20223;-61
2022/12/26 08:31:49;;;;;;;8.17;4.07;;;9.90;99.90;;;;;;5051855;28;20223;-62
2022/12/26 08:34:16;;;;;;;4.50;3.90;;;9.90;99.90;;;;;;5054534;28;20207;-62
2022/12/26 08:36:43;;;;;;;6.07;3.60;;;9.90;99.90;;;;;;5049986;28;20629;-63
2022/12/26 08:39:10;;;;;;;4.77;3.67;;;9.90;99.90;;;;;;5055061;28;20207;-62
2022/12/26 08:41:37;;;;;;;5.63;4.10;;;10.00;99.90;;;;;;5052332;28;20192;-62
2022/12/26 08:44:04;;;;;;;7.03;3.83;;;10.00;99.90;;;;;;5052790;28;20639;-62
2022/12/26 08:46:51;;;;;;;4.03;3.63;;;9.90;99.90;;;;;;5037763;28;20564;-62
2022/12/26 08:49:20;;;;;;;5.80;3.70;;;9.90;99.90;;;;;;5054744;28;20206;-64
2022/12/26 08:51:48;;;;;;;4.77;3.63;;;9.90;99.90;;;;;;5050879;28;20698;-62
2022/12/26 08:54:15;;;;;;;7.07;4.20;;;10.00;99.90;;;;;;5052286;28;20357;-62
2022/12/26 08:56:41;;;;;;;6.87;4.73;;;10.00;99.90;;;;;;5049703;28;20191;-62
2022/12/26 08:59:08;;;;;;;6.20;4.73;;;10.10;99.90;;;;;;5039255;28;20226;-63
2022/12/26 09:01:36;;;;;;;5.97;4.80;;;10.20;99.90;;;;;;5035364;28;20184;-63
2022/12/26 09:04:05;;;;;;;5.90;5.27;;;10.30;99.90;;;;;;5053007;28;20243;-63
2022/12/26 09:06:35;;;;;;;7.03;5.20;;;10.30;99.90;;;;;;5034263;28;20188;-64
2022/12/26 09:09:04;;;;;;;7.07;4.93;;;10.40;99.90;;;;;;5045919;28;20258;-62
2022/12/26 09:11:34;;;;;;;7.77;5.20;;;10.40;90.80;;;;;;5014565;28;20207;-63
2022/12/26 09:14:02;;;;;;;5.87;4.77;;;10.40;88.80;;;;;;5050789;28;20318;-63
2022/12/26 09:16:35;;;;;;;6.70;4.60;;;10.40;93.10;;;;;;5051788;28;20207;-64
2022/12/26 09:19:10;;;;;;;7.17;4.47;;;10.40;75.90;;;;;;5054530;28;20183;-64
2022/12/26 09:21:37;;;;;;;5.00;4.50;;;10.40;76.10;;;;;;5056562;28;20187;-64
2022/12/26 09:24:07;;;;;;;6.23;4.30;;;10.50;36.80;;;;;;5060266;28;20337;-64
2022/12/26 09:26:34;;;;;;;4.17;3.70;;;10.50;31.50;;;;;;5059447;28;20215;-63
2022/12/26 09:29:02;;;;;;;8.60;5.33;;;10.50;29.40;;;;;;5055115;28;20262;-63
2022/12/26 09:31:34;;;;;;;5.80;5.17;;;10.50;30.30;;;;;;5040731;28;20199;-63
2022/12/26 09:34:03;;;;;;;8.30;5.33;;;10.80;17.30;;;;;;5039780;28;20301;-63
2022/12/26 09:36:34;;;;;;;6.03;4.23;;;10.80;2.50;;;;;;5058809;28;20599;-63
2022/12/26 09:39:01;;;;;;;8.33;3.80;;;11.00;1.00;;;;;;5037699;28;20836;-63
2022/12/26 09:41:43;;;;;;;7.40;5.60;;;11.10;1.00;;;;;;5058913;28;20192;-64
2022/12/26 09:44:22;;;;;;;7.20;4.20;;;11.30;1.00;;;;;;5057203;28;20218;-64
2022/12/26 09:47:04;;;;;;;6.33;3.97;;;11.90;1.00;;;;;;5053810;28;20530;-64
2022/12/26 09:49:36;;;;;;;6.10;4.00;;;12.60;1.00;;;;;;5058004;28;20192;-63
2022/12/26 09:52:14;;;;;;;4.97;3.47;;;13.90;1.00;;;;;;5039509;28;20206;-64
2022/12/26 09:54:55;;;;;;;4.65;2.92;;;14.50;1.00;;;;;;5056918;28;20231;-64
2022/12/26 09:57:50;;;;;;;3.75;2.42;;;14.50;1.00;;;;;;5038739;28;20739;-66
2022/12/26 10:00:28;;;;;;;4.53;2.10;;;15.60;1.00;;;;;;5039149;28;20207;-64
2022/12/26 10:03:02;;;;;;;2.97;2.10;;;15.80;1.00;;;;;;5040540;28;20187;-63
2022/12/26 10:05:45;;;;;;;3.60;2.30;;;16.50;1.00;;;;;;5023717;28;20258;-65
2022/12/26 10:08:38;;;;;;;5.63;2.60;;;16.40;1.00;;;;;;5040603;28;20214;-63
2022/12/26 10:11:17;;;;;;;3.53;2.40;;;16.90;1.00;;;;;;5020563;28;20298;-64
2022/12/26 10:14:01;;;;;;;3.70;2.85;;;17.10;1.00;;;;;;5058361;28;20235;-63
2022/12/26 10:17:16;;;;;;;3.83;2.65;;;17.40;1.00;;;;;;5054783;28;20197;-64
2022/12/26 10:20:11;;;;;;;5.80;2.42;;;17.40;1.00;;;;;;5051419;28;20234;-63
2022/12/26 10:22:55;;;;;;;4.93;2.08;;;17.30;1.00;;;;;;5056908;28;20666;-63
2022/12/26 10:25:27;;;;;;;3.63;2.28;;;16.80;1.00;;;;;;5056892;28;20674;-63
2022/12/26 10:28:02;;;;;;;4.50;2.35;;;15.80;1.00;;;;;;5056157;28;20275;-63
2022/12/26 10:30:38;;;;;;;2.28;1.45;;;14.60;1.00;;;;;;5021920;28;20233;-62
2022/12/26 10:33:16;;;;;;;4.25;1.25;;;13.80;1.00;;;;;;5054486;28;20211;-63
2022/12/26 10:35:45;;;;;;;1.42;1.27;;;12.80;1.00;;;;;;5052531;28;20208;-65
2022/12/26 10:38:34;;;;;;;4.88;1.48;;;12.60;1.00;;;;;;5055121;28;20229;-63
2022/12/26 10:41:12;;;;;;;1.53;1.20;;;12.20;1.00;;;;;;5012777;28;20203;-63
2022/12/26 10:43:43;;;;;;;3.13;1.43;;;12.00;1.00;;;;;;5038375;28;20211;-63
2022/12/26 10:46:45;;;;;;;3.97;1.60;;;11.80;1.00;;;;;;5053546;28;20207;-63
2022/12/26 10:49:15;;;;;;;4.03;1.40;;;11.80;1.00;;;;;;5041242;28;20195;-62
2022/12/26 10:51:42;;;;;;;3.70;1.27;;;12.80;1.00;;;;;;5058563;28;20189;-62
2022/12/26 10:54:16;;;;;;;3.23;1.53;;;13.40;1.00;;;;;;5058369;28;20218;-63
2022/12/26 10:56:46;;;;;;;3.23;1.23;;;12.80;1.00;;;;;;5042487;28;20202;-63
2022/12/26 10:59:20;;;;;;;2.93;1.63;;;12.60;1.00;;;;;;5024942;28;20558;-63
2022/12/26 11:01:48;;;;;;;2.67;1.27;;;12.20;1.00;;;;;;5038772;28;20205;-63
2022/12/26 11:04:25;;;;;;;4.40;1.57;;;12.50;1.00;;;;;;5036357;28;20295;-63
2022/12/26 11:07:16;;;;;;;4.53;1.77;;;12.70;1.00;;;;;;5042339;28;20591;-63
2022/12/26 11:09:44;;;;;;;4.07;1.60;;;13.20;1.00;;;;;;5036950;28;20207;-63
2022/12/26 11:12:42;;;;;;;3.60;1.43;;;13.10;1.00;;;;;;5056309;28;20545;-64
2022/12/26 11:15:36;;;;;;;4.10;1.40;;;12.30;1.00;;;;;;5018866;28;20211;-62
2022/12/26 11:18:16;;;;;;;2.60;1.73;;;12.00;1.00;;;;;;5056276;28;20188;-63
2022/12/26 11:20:43;;;;;;;3.30;1.47;;;12.00;1.00;;;;;;5022504;28;20200;-63
2022/12/26 11:23:26;;;;;;;2.00;1.20;;;12.10;1.00;;;;;;5054183;28;20204;-64
2022/12/26 11:25:56;;;;;;;2.17;1.40;;;12.00;1.00;;;;;;5040891;28;20217;-63
2022/12/26 11:28:32;;;;;;;3.23;1.40;;;11.80;1.00;;;;;;5055705;28;20748;-63
2022/12/26 11:31:05;;;;;;;8.10;1.80;;;11.80;1.00;;;;;;5059162;28;20206;-63
2022/12/26 11:33:42;;;;;;;4.53;1.67;;;11.70;1.00;;;;;;5040176;28;20850;-65
2022/12/26 11:36:15;;;;;;;3.77;1.53;;;11.70;1.00;;;;;;5058366;28;20211;-63
2022/12/26 11:38:48;;;;;;;4.63;1.77;;;11.80;1.00;;;;;;5058116;28;20613;-63
2022/12/26 11:41:38;;;;;;;4.07;1.30;;;11.60;1.00;;;;;;5055686;28;20223;-62
2022/12/26 11:44:08;;;;;;;4.20;1.77;;;11.40;1.00;;;;;;5038145;28;20213;-63
2022/12/26 11:46:37;;;;;;;5.53;2.03;;;11.30;1.00;;;;;;5057704;28;20283;-61
2022/12/26 11:49:05;;;;;;;6.37;1.70;;;11.20;1.00;;;;;;5039115;28;20557;-64
2022/12/26 11:51:44;;;;;;;7.43;1.67;;;11.20;1.00;;;;;;5057902;28;20768;-63
2022/12/26 11:54:17;;;;;;;8.63;2.03;;;11.20;1.00;;;;;;5049801;28;20207;-64
2022/12/26 11:56:45;;;;;;;3.77;1.67;;;11.20;1.00;;;;;;5029657;28;20202;-64
2022/12/26 11:59:20;;;;;;;4.07;1.60;;;11.00;1.00;;;;;;5032626;28;20219;-64
2022/12/26 12:02:09;;;;;;;6.63;1.90;;;11.00;1.00;;;;;;5035946;28;20230;-63
2022/12/26 12:04:36;;;;;;;8.63;1.87;;;10.90;1.00;;;;;;5049415;28;20231;-63
2022/12/26 12:07:48;;;;;;;12.03;4.97;;;10.80;1.00;;;;;;5051852;28;20223;-64
2022/12/26 12:10:37;;;;;;;5.27;2.10;;;10.80;1.00;;;;;;4941399;28;20206;-64
2022/12/26 12:13:34;;;;;;;8.00;2.10;;;11.00;1.00;;;;;;5043428;28;20703;-64
2022/12/26 12:16:25;;;;;;;2.80;1.60;;;11.00;1.00;;;;;;5018039;28;20664;-67
2022/12/26 12:19:15;;;;;;;4.13;2.07;;;10.90;1.00;;;;;;5024013;28;20219;-64
2022/12/26 12:21:44;;;;;;;1.67;1.40;;;11.00;1.00;;;;;;5017647;28;20293;-62
2022/12/26 12:24:39;;;;;;;2.77;1.70;;;11.00;1.00;;;;;;5051061;28;20282;-62
2022/12/26 12:27:13;;;;;;;2.97;1.53;;;11.00;1.00;;;;;;5019237;28;20712;-62
2022/12/26 12:30:10;;;;;;;3.03;1.90;;;11.00;1.00;;;;;;5019035;28;20203;-62
2022/12/26 12:32:59;;;;;;;3.07;2.00;;;11.00;1.00;;;;;;5038541;28;20719;-63
2022/12/26 12:35:55;;;;;;;3.57;2.00;;;11.00;1.00;;;;;;5036454;28;20667;-63
2022/12/26 12:38:37;;;;;;;4.23;2.17;;;10.90;1.00;;;;;;5026678;28;20258;-63
2022/12/26 12:41:56;;;;;;;2.73;1.87;;;10.80;1.00;;;;;;5051865;28;20206;-62
2022/12/26 12:44:34;;;;;;;5.70;4.37;;;10.80;1.00;;;;;;5020385;28;20204;-63
2022/12/26 12:47:41;;;;;;;2.50;1.53;;;10.90;1.00;;;;;;5046161;28;20223;-64
2022/12/26 12:50:31;;;;;;;4.70;2.03;;;10.90;1.00;;;;;;5052336;28;20248;-63
2022/12/26 12:53:22;;;;;;;5.20;1.80;;;11.10;1.00;;;;;;5018687;28;20209;-63
2022/12/26 12:56:32;;;;;;;3.17;1.97;;;11.00;1.00;;;;;;5051609;28;20756;-63
2022/12/26 12:59:13;;;;;;;2.20;1.67;;;10.80;1.00;;;;;;5004042;28;20204;-64
2022/12/26 13:01:46;;;;;;;4.70;2.10;;;10.80;1.00;;;;;;5057119;28;20303;-63
2022/12/26 13:04:20;;;;;;;2.90;1.93;;;11.00;1.00;;;;;;5039880;28;20841;-65
2022/12/26 13:06:52;;;;;;;3.20;1.60;;;11.70;1.00;;;;;;5022861;28;20200;-62
2022/12/26 13:09:24;;;;;;;6.47;1.80;;;11.80;1.00;;;;;;5041236;28;20217;-63
2022/12/26 13:12:05;;;;;;;6.57;2.00;;;11.80;1.00;;;;;;5024484;28;20203;-63
2022/12/26 13:14:42;;;;;;;4.83;1.90;;;11.60;1.00;;;;;;5057277;28;20321;-63
2022/12/26 13:17:19;;;;;;;4.80;2.23;;;11.40;1.00;;;;;;5025606;28;20244;-63
2022/12/26 13:20:03;;;;;;;6.80;2.07;;;11.10;1.00;;;;;;5055049;28;20185;-63
2022/12/26 13:25:25;;;;;;;3.73;1.60;;;10.40;1.00;;;;;;5054710;28;20333;-64
2022/12/26 13:28:08;;;;;;;4.60;1.80;;;10.20;1.00;;;;;;5035564;28;20215;-64
2022/12/26 13:30:36;;;;;;;5.27;2.33;;;10.00;1.00;;;;;;5020891;28;20560;-63
2022/12/26 13:33:04;;;;;;;4.00;2.93;;;9.90;1.00;;;;;;5033388;28;20223;-63
2022/12/26 13:35:55;;;;;;;4.40;2.63;;;9.80;5.80;;;;;;5055442;28;20253;-62
2022/12/26 13:38:45;;;;;;;6.73;4.17;;;9.70;7.60;;;;;;5037633;28;20198;-63
2022/12/26 13:44:26;;;;;;;3.20;2.43;;;9.50;47.80;;;;;;5033857;28;20761;-63
2022/12/26 13:46:57;;;;;;;5.83;3.03;;;9.50;73.90;;;;;;5053076;28;20209;-63
2022/12/26 13:49:43;;;;;;;5.30;3.00;;;9.50;71.00;;;;;;5032152;28;20282;-63
2022/12/26 13:52:10;;;;;;;5.70;3.40;;;9.50;70.80;;;;;;5049835;28;20199;-65
2022/12/26 13:55:03;;;;;;;4.63;2.90;;;9.50;60.00;;;;;;5032843;28;20220;-63
2022/12/26 13:57:33;;;;;;;4.90;4.00;;;9.50;72.30;;;;;;5036094;28;20197;-64
2022/12/26 14:00:04;;;;;;;8.97;4.13;;;9.50;60.00;;;;;;5034466;28;20208;-63
2022/12/26 14:03:09;;;;;;;8.60;3.87;;;9.50;70.40;;;;;;5022548;28;20273;-62
2022/12/26 14:05:58;;;;;;;5.70;3.47;;;9.50;63.60;;;;;;5040647;28;20267;-62
2022/12/26 14:08:30;;;;;;;4.17;2.93;;;9.40;43.80;;;;;;5013965;28;20195;-63
2022/12/26 14:11:12;;;;;;;6.00;3.17;;;9.40;36.90;;;;;;5019655;28;20666;-62
2022/12/26 14:13:55;;;;;;;6.07;3.23;;;9.40;32.90;;;;;;5035012;28;20650;-62
2022/12/26 14:16:52;;;;;;;5.10;3.27;;;9.50;29.70;;;;;;5055475;28;20207;-62
2022/12/26 14:19:40;;;;;;;5.80;3.00;;;9.40;17.70;;;;;;5055957;28;20192;-63
2022/12/26 14:22:17;;;;;;;5.60;3.53;;;9.30;21.90;;;;;;5051692;28;20278;-63
2022/12/26 14:25:12;;;;;;;9.13;3.63;;;9.30;22.00;;;;;;5055200;28;20221;-62
2022/12/26 14:27:57;;;;;;;7.87;3.30;;;9.30;20.10;;;;;;5039289;28;20194;-62
2022/12/26 14:30:47;;;;;;;4.30;3.00;;;9.30;21.10;;;;;;5037455;28;20654;-63
2022/12/26 14:33:37;;;;;;;11.17;3.53;;;9.30;16.50;;;;;;5033115;28;20200;-63
2022/12/26 14:36:10;;;;;;;8.27;3.27;;;9.30;12.40;;;;;;5039408;28;20242;-61
2022/12/26 14:38:59;;;;;;;10.17;2.80;;;9.20;6.90;;;;;;5050309;28;20191;-62
2022/12/26 14:44:21;;;;;;;6.47;3.37;;;9.00;1.00;;;;;;5037808;28;20213;-62
2022/12/26 14:46:48;;;;;;;7.13;2.80;;;8.80;1.00;;;;;;5035066;28;20199;-64
2022/12/26 14:49:38;;;;;;;9.27;2.23;;;8.80;1.00;;;;;;5019565;28;20849;-62
2022/12/26 14:52:23;;;;;;;6.90;2.40;;;8.90;1.00;;;;;;5020368;28;20202;-63
2022/12/26 14:54:51;;;;;;;8.97;2.43;;;8.80;1.00;;;;;;5034980;28;20204;-62
2022/12/26 14:57:45;;;;;;;7.37;2.03;;;8.80;1.00;;;;;;5036108;28;20265;-62
2022/12/26 15:00:21;;;;;;;7.83;2.70;;;8.70;1.00;;;;;;5039188;28;20265;-66
2022/12/26 15:03:32;;;;;;;7.13;3.17;;;8.80;1.00;;;;;;5054253;28;20201;-63
2022/12/26 15:06:23;;;;;;;6.60;2.30;;;8.80;1.00;;;;;;5012095;28;20312;-62
2022/12/26 15:09:09;;;;;;;7.90;2.83;;;8.70;1.00;;;;;;5028814;28;20295;-63
2022/12/26 15:11:36;;;;;;;8.97;2.87;;;8.70;1.00;;;;;;5034907;28;20684;-63
2022/12/26 15:14:30;;;;;;;8.87;2.43;;;8.60;1.00;;;;;;5034256;28;20211;-62
2022/12/26 15:17:02;;;;;;;8.47;2.93;;;8.50;1.00;;;;;;5031316;28;20227;-62
2022/12/26 15:19:53;;;;;;;8.30;3.13;;;8.40;1.00;;;;;;5033235;28;20180;-62
2022/12/26 15:22:44;;;;;;;11.70;3.23;;;8.30;1.00;;;;;;5035571;28;20239;-63
2022/12/26 15:25:48;;;;;;;10.53;3.40;;;8.10;1.00;;;;;;5037783;28;20314;-62
2022/12/26 15:28:33;;;;;;;7.80;2.87;;;8.00;1.00;;;;;;5034178;28;20234;-66
2022/12/26 15:31:03;;;;;;;8.47;3.60;;;8.10;1.00;;;;;;5036811;28;20199;-62
2022/12/26 15:33:48;;;;;;;5.93;3.13;;;8.20;1.00;;;;;;5019014;28;20271;-67
2022/12/26 15:36:32;;;;;;;12.37;6.43;;;8.10;1.00;;;;;;5036842;28;20207;-62
2022/12/26 15:39:17;;;;;;;8.27;3.17;;;8.10;1.00;;;;;;5034291;28;20711;-63
2022/12/26 15:41:47;;;;;;;13.20;6.50;;;8.00;1.00;;;;;;5036804;28;20260;-62
2022/12/26 15:44:26;;;;;;;12.93;3.70;;;8.00;1.00;;;;;;5029971;28;20785;-62
2022/12/26 15:47:33;;;;;;;13.50;3.67;;;8.00;1.00;;;;;;5035173;28;20249;-63
2022/12/26 15:50:20;;;;;;;6.63;2.53;;;8.00;1.00;;;;;;5048814;28;20192;-62
2022/12/26 15:52:50;;;;;;;8.67;2.47;;;8.00;1.00;;;;;;5035181;28;20809;-63